Time;durP1;ratioP1;P1;durP2;ratioP2;P2;SDS_P1;SDS_P2;PMS_P1;PMS_P2;Temp;Humidity;BMP_temperature;BMP_pressure;BME280_temperature;BME280_humidity;BME280_pressure;Samples;Min_cycle;Max_cycle;Signal;HPM_P1;HPM_P2
2022/04/08 00:01:34;;;;;;;8.43;3.08;;;5.70;99.90;;;;;;5068985;28;20123;-73
2022/04/08 00:04:02;;;;;;;11.57;3.30;;;5.70;99.90;;;;;;5068508;28;20119;-72
2022/04/08 00:06:27;;;;;;;14.93;3.08;;;5.70;99.90;;;;;;5065870;28;20445;-73
2022/04/08 00:08:53;;;;;;;11.10;2.78;;;5.70;99.90;;;;;;5049153;28;20047;-72
2022/04/08 00:11:19;;;;;;;19.48;2.90;;;5.70;99.90;;;;;;5049106;28;20045;-72
2022/04/08 00:13:45;;;;;;;19.70;3.83;;;5.70;99.90;;;;;;5049155;28;20044;-72
2022/04/08 00:16:11;;;;;;;13.93;4.35;;;5.70;99.90;;;;;;5048006;28;20041;-73
2022/04/08 00:18:42;;;;;;;9.25;3.40;;;5.70;99.90;;;;;;5065967;28;20072;-72
2022/04/08 00:21:07;;;;;;;12.88;3.58;;;5.70;99.90;;;;;;5051955;28;20246;-72
2022/04/08 00:23:34;;;;;;;15.43;3.92;;;5.70;99.90;;;;;;5068900;28;20127;-73
2022/04/08 00:25:59;;;;;;;13.38;3.63;;;5.70;99.90;;;;;;5067975;28;20054;-73
2022/04/08 00:28:25;;;;;;;9.00;3.17;;;5.70;99.90;;;;;;5070195;28;20058;-73
2022/04/08 00:30:51;;;;;;;9.00;2.95;;;5.60;99.90;;;;;;5070580;28;20398;-72
2022/04/08 00:33:17;;;;;;;15.68;3.83;;;5.60;99.90;;;;;;5068269;28;20041;-72
2022/04/08 00:35:43;;;;;;;12.52;3.83;;;5.60;99.90;;;;;;5068517;28;20048;-73
2022/04/08 00:38:09;;;;;;;13.75;2.90;;;5.70;99.90;;;;;;5068430;28;20049;-71
2022/04/08 00:40:35;;;;;;;17.63;4.00;;;5.60;99.90;;;;;;5068078;28;20042;-72
2022/04/08 00:43:15;;;;;;;15.65;3.70;;;5.60;99.90;;;;;;5068706;28;20062;-73
2022/04/08 00:45:41;;;;;;;13.82;3.22;;;5.60;99.90;;;;;;5064809;28;20124;-72
2022/04/08 00:48:07;;;;;;;10.32;3.28;;;5.60;99.90;;;;;;5065035;28;20043;-72
2022/04/08 00:50:41;;;;;;;21.02;3.78;;;5.60;99.90;;;;;;5060309;28;20053;-72
2022/04/08 00:53:07;;;;;;;8.38;2.85;;;5.60;99.90;;;;;;5068251;28;20049;-73
2022/04/08 00:55:35;;;;;;;11.02;3.55;;;5.60;99.90;;;;;;5067385;28;20056;-73
2022/04/08 00:58:02;;;;;;;8.27;2.33;;;5.60;99.90;;;;;;5067404;28;20048;-73
2022/04/08 01:00:33;;;;;;;6.40;2.73;;;5.60;99.90;;;;;;5061748;28;20055;-72
2022/04/08 01:02:59;;;;;;;5.88;2.33;;;5.50;99.90;;;;;;5068286;28;21336;-72
2022/04/08 01:05:25;;;;;;;4.60;2.28;;;5.50;99.90;;;;;;5067595;28;20052;-74
2022/04/08 01:07:52;;;;;;;4.10;2.13;;;5.40;99.90;;;;;;5080200;28;20060;-73
2022/04/08 01:10:18;;;;;;;5.43;1.73;;;5.40;99.90;;;;;;5067178;28;20066;-73
2022/04/08 01:12:44;;;;;;;4.55;1.63;;;5.30;99.90;;;;;;5067632;28;20080;-72
2022/04/08 01:15:10;;;;;;;4.47;1.70;;;5.30;99.90;;;;;;5067915;28;20142;-72
2022/04/08 01:17:36;;;;;;;7.47;1.88;;;5.30;99.90;;;;;;5063367;28;20056;-72
2022/04/08 01:20:03;;;;;;;11.45;2.38;;;5.20;99.90;;;;;;5053889;28;20049;-72
2022/04/08 01:22:29;;;;;;;14.32;2.05;;;5.20;99.90;;;;;;5058353;28;20048;-72
2022/04/08 01:25:03;;;;;;;4.18;1.60;;;5.10;99.90;;;;;;5067832;28;20043;-72
2022/04/08 01:27:29;;;;;;;17.23;3.20;;;5.10;99.90;;;;;;5067674;28;20056;-72
2022/04/08 01:29:55;;;;;;;6.57;2.08;;;5.10;99.90;;;;;;5067535;28;20154;-72
2022/04/08 01:32:22;;;;;;;7.22;2.40;;;5.10;99.90;;;;;;5065165;28;20537;-72
2022/04/08 01:34:49;;;;;;;3.95;1.67;;;5.10;99.90;;;;;;5067699;28;20056;-73
2022/04/08 01:37:18;;;;;;;6.70;1.85;;;5.00;99.90;;;;;;5060844;28;20048;-72
2022/04/08 01:39:44;;;;;;;10.63;2.53;;;5.00;99.90;;;;;;5067620;28;20498;-73
2022/04/08 01:42:10;;;;;;;9.32;2.70;;;5.00;99.90;;;;;;5067548;28;20131;-73
2022/04/08 01:44:36;;;;;;;10.55;2.58;;;5.00;99.90;;;;;;5068364;28;20071;-73
2022/04/08 01:47:03;;;;;;;3.95;1.70;;;5.00;99.90;;;;;;5067535;28;20045;-73
2022/04/08 01:49:28;;;;;;;3.10;1.67;;;5.00;99.90;;;;;;5066570;28;20053;-72
2022/04/08 01:51:54;;;;;;;9.32;1.92;;;5.00;99.90;;;;;;5066970;28;20040;-72
2022/04/08 01:54:20;;;;;;;6.10;2.00;;;4.90;99.90;;;;;;5066703;28;20125;-73
2022/04/08 01:56:46;;;;;;;4.10;1.88;;;4.90;99.90;;;;;;5068924;28;20060;-72
2022/04/08 01:59:12;;;;;;;5.20;2.22;;;4.80;99.90;;;;;;5067645;28;20036;-72
2022/04/08 02:01:37;;;;;;;8.85;2.28;;;4.80;99.90;;;;;;5067057;28;20153;-73
2022/04/08 02:04:04;;;;;;;8.18;2.63;;;4.80;99.90;;;;;;5066167;28;20059;-72
2022/04/08 02:06:30;;;;;;;8.52;2.35;;;4.80;99.90;;;;;;5065465;28;20048;-72
2022/04/08 02:08:57;;;;;;;2.97;2.10;;;4.80;99.90;;;;;;5071500;28;20041;-72
2022/04/08 02:11:23;;;;;;;5.95;2.10;;;4.70;99.90;;;;;;5071422;28;20044;-72
2022/04/08 02:13:49;;;;;;;5.60;2.03;;;4.70;99.90;;;;;;5071755;28;20053;-72
2022/04/08 02:16:15;;;;;;;14.00;3.28;;;4.70;99.90;;;;;;5070634;28;20048;-73
2022/04/08 02:18:42;;;;;;;13.52;2.47;;;4.80;99.90;;;;;;5071029;28;20463;-71
2022/04/08 02:21:09;;;;;;;7.78;2.58;;;4.60;99.90;;;;;;5067349;28;20449;-73
2022/04/08 02:23:35;;;;;;;8.95;2.15;;;4.70;99.90;;;;;;5068822;28;20044;-73
2022/04/08 02:26:02;;;;;;;5.88;2.22;;;4.60;99.90;;;;;;5070210;28;20608;-73
2022/04/08 02:28:27;;;;;;;10.23;2.40;;;4.60;99.90;;;;;;5071056;28;20149;-73
2022/04/08 02:30:55;;;;;;;6.78;2.13;;;4.60;99.90;;;;;;5069908;28;20253;-73
2022/04/08 02:33:21;;;;;;;7.70;2.83;;;4.50;99.90;;;;;;5070839;28;20052;-73
2022/04/08 02:35:47;;;;;;;10.23;3.22;;;4.50;99.90;;;;;;5070073;28;20041;-73
2022/04/08 02:38:13;;;;;;;15.50;3.67;;;4.50;99.90;;;;;;5069939;28;20080;-73
2022/04/08 02:40:39;;;;;;;8.45;3.72;;;4.40;99.90;;;;;;5061533;28;20126;-73
2022/04/08 02:43:06;;;;;;;13.57;2.83;;;4.40;99.90;;;;;;5054833;28;20486;-73
2022/04/08 02:45:32;;;;;;;7.45;2.55;;;4.30;99.90;;;;;;5077747;28;20074;-72
2022/04/08 02:47:58;;;;;;;15.73;3.30;;;4.30;99.90;;;;;;5073941;28;20048;-72
2022/04/08 02:50:24;;;;;;;7.25;2.35;;;4.20;99.90;;;;;;5070564;28;20051;-73
2022/04/08 02:52:49;;;;;;;10.05;2.72;;;4.20;99.90;;;;;;5070178;28;20048;-72
2022/04/08 02:55:15;;;;;;;15.32;2.90;;;4.20;99.90;;;;;;5069966;28;20064;-73
2022/04/08 02:57:45;;;;;;;8.43;2.50;;;4.20;99.90;;;;;;5068762;28;20080;-72
2022/04/08 03:00:15;;;;;;;12.68;2.85;;;4.10;99.90;;;;;;5069159;28;20052;-73
2022/04/08 03:02:42;;;;;;;9.57;3.30;;;4.00;99.90;;;;;;5082006;28;20043;-72
2022/04/08 03:05:08;;;;;;;19.13;3.53;;;3.90;99.90;;;;;;5065384;28;20603;-71
2022/04/08 03:07:34;;;;;;;9.02;3.03;;;3.90;99.90;;;;;;5067661;28;20087;-72
2022/04/08 03:10:01;;;;;;;8.55;3.00;;;3.90;99.90;;;;;;5069248;28;20119;-71
2022/04/08 03:12:26;;;;;;;5.68;2.25;;;3.80;99.90;;;;;;5070279;28;20521;-71
2022/04/08 03:14:52;;;;;;;7.13;3.20;;;3.80;99.90;;;;;;5053190;28;20131;-72
2022/04/08 03:17:17;;;;;;;10.43;3.53;;;3.80;99.90;;;;;;5070488;28;20049;-72
2022/04/08 03:19:45;;;;;;;10.95;3.53;;;3.80;99.90;;;;;;5069338;28;20205;-72
2022/04/08 03:22:12;;;;;;;8.60;2.50;;;3.80;99.90;;;;;;5046665;28;20131;-72
2022/04/08 03:24:38;;;;;;;8.48;3.40;;;3.90;99.90;;;;;;5054985;28;20721;-72
2022/04/08 03:27:04;;;;;;;15.80;3.75;;;3.80;99.90;;;;;;5069911;28;20089;-72
2022/04/08 03:29:30;;;;;;;8.18;3.30;;;3.90;99.90;;;;;;5070940;28;20048;-72
2022/04/08 03:31:55;;;;;;;9.13;3.55;;;3.90;99.90;;;;;;5069333;28;20088;-72
2022/04/08 03:34:21;;;;;;;19.42;3.15;;;3.90;99.90;;;;;;5068827;28;20032;-72
2022/04/08 03:36:47;;;;;;;17.67;3.80;;;3.90;99.90;;;;;;5064198;28;20552;-72
2022/04/08 03:39:13;;;;;;;11.98;3.65;;;3.90;99.90;;;;;;5060176;28;20045;-72
2022/04/08 03:41:40;;;;;;;15.00;3.67;;;3.90;99.90;;;;;;5069452;28;20101;-72
2022/04/08 03:44:06;;;;;;;10.43;3.72;;;3.90;99.90;;;;;;5069102;28;20056;-72
2022/04/08 03:46:31;;;;;;;9.98;3.45;;;3.80;99.90;;;;;;5068231;28;20041;-72
2022/04/08 03:48:57;;;;;;;14.68;3.35;;;3.80;99.90;;;;;;5068097;28;20040;-72
2022/04/08 03:51:23;;;;;;;10.10;3.67;;;3.70;99.90;;;;;;5064640;28;20047;-72
2022/04/08 03:53:48;;;;;;;9.50;3.25;;;3.70;99.90;;;;;;5069375;28;20051;-72
2022/04/08 03:56:14;;;;;;;11.45;3.42;;;3.70;99.90;;;;;;5068542;28;20764;-72
2022/04/08 03:58:40;;;;;;;8.13;2.90;;;3.70;99.90;;;;;;5068808;28;20048;-72
2022/04/08 04:01:05;;;;;;;16.23;3.53;;;3.70;99.90;;;;;;5068788;28;20045;-72
2022/04/08 04:03:31;;;;;;;11.93;3.53;;;3.70;99.90;;;;;;5069046;28;20105;-72
2022/04/08 04:05:57;;;;;;;12.20;3.33;;;3.80;99.90;;;;;;5069157;28;20611;-73
2022/04/08 04:08:22;;;;;;;15.10;5.18;;;3.80;99.90;;;;;;5069650;28;20574;-73
2022/04/08 04:10:48;;;;;;;19.85;3.67;;;3.80;99.90;;;;;;5068674;28;20052;-73
2022/04/08 04:13:15;;;;;;;20.05;4.97;;;3.80;99.90;;;;;;5069195;28;20041;-73
2022/04/08 04:15:41;;;;;;;17.63;4.78;;;3.80;99.90;;;;;;5068232;28;20036;-72
2022/04/08 04:18:08;;;;;;;16.77;4.28;;;3.80;99.90;;;;;;5057216;28;20056;-72
2022/04/08 04:20:34;;;;;;;16.65;3.92;;;3.80;99.90;;;;;;5066224;28;20052;-71
2022/04/08 04:22:59;;;;;;;10.38;3.40;;;3.70;99.90;;;;;;5052186;28;20044;-71
2022/04/08 04:25:26;;;;;;;11.98;3.30;;;3.70;99.90;;;;;;5068610;28;20102;-71
2022/04/08 04:27:51;;;;;;;10.15;3.28;;;3.70;99.90;;;;;;5052004;28;20049;-71
2022/04/08 04:30:17;;;;;;;12.10;3.65;;;3.60;99.90;;;;;;5067139;28;20170;-72
2022/04/08 04:32:42;;;;;;;5.10;2.63;;;3.60;99.90;;;;;;5068705;28;20044;-72
2022/04/08 04:35:08;;;;;;;7.35;2.80;;;3.60;99.90;;;;;;5067875;28;20048;-72
2022/04/08 04:37:35;;;;;;;11.60;3.67;;;3.60;99.90;;;;;;5068711;28;20040;-72
2022/04/08 04:40:02;;;;;;;11.75;2.78;;;3.50;99.90;;;;;;5068599;28;20045;-72
2022/04/08 04:42:29;;;;;;;5.60;3.13;;;3.50;99.90;;;;;;5068417;28;20170;-72
2022/04/08 04:44:55;;;;;;;12.43;2.92;;;3.50;99.90;;;;;;5068651;28;20044;-72
2022/04/08 04:47:21;;;;;;;4.78;2.05;;;3.50;99.90;;;;;;5068238;28;20048;-72
2022/04/08 04:49:47;;;;;;;7.80;2.67;;;3.50;99.90;;;;;;5067391;28;20094;-72
2022/04/08 04:52:12;;;;;;;8.35;3.55;;;3.50;99.90;;;;;;5068192;28;20051;-72
2022/04/08 04:54:38;;;;;;;7.70;3.30;;;3.40;99.90;;;;;;5067701;28;20417;-72
2022/04/08 04:57:04;;;;;;;6.40;2.92;;;3.40;99.90;;;;;;5051063;28;20052;-72
2022/04/08 04:59:31;;;;;;;6.13;2.97;;;3.40;99.90;;;;;;5054254;28;20048;-72
2022/04/08 05:01:57;;;;;;;3.38;2.70;;;3.30;99.90;;;;;;5050334;28;20792;-72
2022/04/08 05:04:23;;;;;;;6.15;3.25;;;3.30;99.90;;;;;;5058605;28;20102;-72
2022/04/08 05:06:49;;;;;;;4.15;2.83;;;3.30;99.90;;;;;;5068693;28;20052;-72
2022/04/08 05:09:14;;;;;;;9.10;2.72;;;3.20;99.90;;;;;;5068429;28;20405;-72
2022/04/08 05:11:40;;;;;;;2.67;2.15;;;3.20;99.90;;;;;;5067203;28;20055;-72
2022/04/08 05:14:06;;;;;;;11.25;3.40;;;3.20;99.90;;;;;;5067776;28;20055;-72
2022/04/08 05:16:31;;;;;;;5.93;2.58;;;3.20;99.90;;;;;;5067554;28;20048;-72
2022/04/08 05:18:58;;;;;;;8.30;3.47;;;3.20;99.90;;;;;;5057526;28;20448;-72
2022/04/08 05:21:24;;;;;;;5.60;3.10;;;3.20;99.90;;;;;;5056203;28;20044;-72
2022/04/08 05:23:50;;;;;;;8.40;3.60;;;3.20;99.90;;;;;;5067558;28;20109;-71
2022/04/08 05:26:16;;;;;;;6.47;3.10;;;3.30;99.90;;;;;;5067367;28;20446;-72
2022/04/08 05:28:42;;;;;;;7.30;3.45;;;3.40;99.90;;;;;;5062340;28;20045;-72
2022/04/08 05:31:07;;;;;;;4.80;3.40;;;3.40;99.90;;;;;;5067399;28;20059;-72
2022/04/08 05:33:33;;;;;;;6.22;3.70;;;3.50;99.90;;;;;;5067338;28;20449;-71
2022/04/08 05:35:59;;;;;;;7.50;3.67;;;3.70;99.90;;;;;;5066938;28;20391;-72
2022/04/08 05:38:24;;;;;;;10.60;3.65;;;3.80;99.90;;;;;;5067516;28;20154;-72
2022/04/08 05:40:50;;;;;;;8.15;3.63;;;4.00;99.90;;;;;;5066988;28;20048;-72
2022/04/08 05:43:16;;;;;;;7.65;3.47;;;4.00;99.90;;;;;;5065988;28;20922;-72
2022/04/08 05:45:42;;;;;;;8.43;3.50;;;4.00;99.90;;;;;;5068108;28;20489;-71
2022/04/08 05:48:08;;;;;;;7.07;3.22;;;4.00;99.90;;;;;;5068698;28;20503;-72
2022/04/08 05:50:34;;;;;;;12.10;3.97;;;4.10;99.90;;;;;;5067101;28;20043;-72
2022/04/08 05:53:00;;;;;;;10.68;4.03;;;4.10;99.90;;;;;;5067277;28;20050;-72
2022/04/08 05:55:26;;;;;;;7.40;3.58;;;4.10;99.90;;;;;;5067508;28;20761;-72
2022/04/08 05:57:56;;;;;;;5.60;3.45;;;4.10;99.90;;;;;;5066382;28;20049;-73
2022/04/08 06:00:23;;;;;;;8.48;4.30;;;4.10;99.90;;;;;;5066808;28;20413;-72
2022/04/08 06:02:49;;;;;;;9.60;4.13;;;4.10;99.90;;;;;;5067583;28;20048;-72
2022/04/08 06:05:20;;;;;;;9.20;3.50;;;4.20;99.90;;;;;;5067284;28;20053;-73
2022/04/08 06:07:49;;;;;;;9.18;3.60;;;4.10;99.90;;;;;;5066915;28;20892;-72
2022/04/08 06:10:19;;;;;;;6.47;4.13;;;4.10;99.90;;;;;;5066660;28;20052;-73
2022/04/08 06:12:46;;;;;;;5.28;3.90;;;4.20;99.90;;;;;;5066478;28;20040;-72
2022/04/08 06:15:12;;;;;;;14.75;4.55;;;4.30;99.90;;;;;;5060594;28;20060;-73
2022/04/08 06:17:39;;;;;;;6.55;3.47;;;4.40;99.90;;;;;;5067448;28;20045;-74
2022/04/08 06:20:07;;;;;;;6.53;3.50;;;4.60;99.90;;;;;;5050125;28;20520;-73
2022/04/08 06:22:32;;;;;;;7.60;4.03;;;4.70;99.90;;;;;;5048801;28;20056;-73
2022/04/08 06:24:58;;;;;;;6.88;3.67;;;4.90;99.90;;;;;;5069076;28;20783;-73
2022/04/08 06:27:24;;;;;;;7.82;3.53;;;5.10;99.90;;;;;;5067347;28;20048;-73
2022/04/08 06:29:49;;;;;;;4.20;2.65;;;5.40;99.90;;;;;;5065075;28;20114;-72
2022/04/08 06:32:16;;;;;;;4.32;2.83;;;5.40;99.90;;;;;;5067211;28;20056;-73
2022/04/08 06:34:42;;;;;;;6.43;3.45;;;5.50;99.90;;;;;;5066987;28;20827;-73
2022/04/08 06:37:08;;;;;;;8.55;3.17;;;5.60;99.90;;;;;;5065223;28;20074;-73
2022/04/08 06:39:34;;;;;;;8.30;3.78;;;5.70;99.90;;;;;;5067652;28;20056;-74
2022/04/08 06:41:59;;;;;;;5.60;2.85;;;5.70;99.90;;;;;;5066268;28;20049;-72
2022/04/08 06:44:25;;;;;;;5.95;3.10;;;5.70;99.90;;;;;;5065140;28;20040;-74
2022/04/08 06:46:51;;;;;;;7.07;3.45;;;5.80;99.90;;;;;;5066934;28;20524;-74
2022/04/08 06:49:19;;;;;;;6.22;3.17;;;5.80;99.90;;;;;;5066774;28;20576;-74
2022/04/08 06:51:45;;;;;;;7.22;3.42;;;5.80;99.90;;;;;;5066549;28;20520;-73
2022/04/08 06:54:11;;;;;;;8.38;2.95;;;5.80;99.90;;;;;;5065746;28;20086;-75
2022/04/08 06:56:36;;;;;;;4.60;2.80;;;5.90;99.90;;;;;;5070322;28;20060;-74
2022/04/08 06:59:02;;;;;;;3.10;2.80;;;6.10;99.90;;;;;;5047267;28;20509;-74
2022/04/08 07:01:30;;;;;;;6.45;3.33;;;6.20;99.90;;;;;;5069450;28;20063;-75
2022/04/08 07:03:56;;;;;;;4.03;2.78;;;6.40;99.90;;;;;;5069501;28;20052;-76
2022/04/08 07:06:22;;;;;;;4.72;3.17;;;6.40;99.90;;;;;;5070005;28;20056;-74
2022/04/08 07:08:47;;;;;;;7.82;2.95;;;6.50;99.90;;;;;;5065304;28;20082;-74
2022/04/08 07:11:14;;;;;;;4.70;3.22;;;6.60;99.90;;;;;;5070255;28;20044;-75
2022/04/08 07:13:41;;;;;;;3.45;2.92;;;6.60;99.90;;;;;;5070140;28;20051;-74
2022/04/08 07:16:08;;;;;;;3.83;2.90;;;6.60;99.90;;;;;;5066889;28;20044;-75
2022/04/08 07:18:34;;;;;;;7.80;3.08;;;6.60;99.90;;;;;;5070762;28;20551;-74
2022/04/08 07:21:01;;;;;;;7.53;2.83;;;6.70;99.90;;;;;;5072902;28;20105;-74
2022/04/08 07:23:26;;;;;;;3.63;3.30;;;6.80;99.90;;;;;;5068662;28;20060;-73
2022/04/08 07:25:52;;;;;;;4.70;3.53;;;7.20;99.90;;;;;;5069833;28;20028;-73
2022/04/08 07:28:18;;;;;;;16.10;4.05;;;7.30;99.90;;;;;;5070045;28;20058;-73
2022/04/08 07:30:43;;;;;;;6.95;2.97;;;7.30;99.90;;;;;;5066282;28;20405;-73
2022/04/08 07:33:09;;;;;;;9.90;4.05;;;7.70;99.90;;;;;;5051838;28;20127;-73
2022/04/08 07:35:37;;;;;;;3.72;3.13;;;8.00;99.90;;;;;;5070961;28;20393;-75
2022/04/08 07:38:05;;;;;;;4.30;3.05;;;7.90;99.90;;;;;;5070938;28;20045;-73
2022/04/08 07:40:31;;;;;;;4.60;3.40;;;7.90;99.90;;;;;;5052727;28;20059;-72
2022/04/08 07:42:57;;;;;;;5.57;3.00;;;7.90;99.90;;;;;;5067182;28;20052;-71
2022/04/08 07:45:27;;;;;;;7.70;4.10;;;8.20;99.90;;;;;;5069295;28;20490;-73
2022/04/08 07:47:55;;;;;;;8.25;3.17;;;8.30;99.90;;;;;;5067290;28;20647;-73
2022/04/08 07:50:21;;;;;;;4.25;2.90;;;8.10;99.90;;;;;;5062948;28;20047;-73
2022/04/08 07:52:47;;;;;;;9.82;3.25;;;7.90;99.90;;;;;;5049277;28;20059;-75
2022/04/08 07:55:13;;;;;;;7.75;3.45;;;8.10;99.90;;;;;;5059376;28;20052;-73
2022/04/08 07:57:47;;;;;;;8.23;3.42;;;8.40;99.90;;;;;;5068453;28;20092;-74
2022/04/08 08:00:14;;;;;;;7.82;3.33;;;8.70;99.90;;;;;;5060589;28;20051;-73
2022/04/08 08:02:41;;;;;;;5.32;3.30;;;8.80;99.90;;;;;;5068695;28;20056;-72
2022/04/08 08:05:07;;;;;;;5.65;3.38;;;9.10;99.90;;;;;;5055150;28;20075;-72
2022/04/08 08:07:50;;;;;;;9.65;3.83;;;9.40;99.90;;;;;;5069604;28;20071;-72
2022/04/08 08:10:24;;;;;;;12.25;3.40;;;9.80;99.90;;;;;;5061213;28;20079;-72
2022/04/08 08:12:51;;;;;;;10.00;3.45;;;9.80;99.90;;;;;;5061102;28;20036;-74
2022/04/08 08:15:20;;;;;;;11.82;3.45;;;9.60;99.90;;;;;;5045440;28;20140;-74
2022/04/08 08:17:47;;;;;;;9.50;2.90;;;9.10;99.90;;;;;;5057789;28;20490;-74
2022/04/08 08:20:15;;;;;;;9.68;4.72;;;8.70;99.90;;;;;;5069148;28;20052;-74
2022/04/08 08:22:43;;;;;;;12.82;4.07;;;8.40;99.90;;;;;;5069278;28;20451;-75
2022/04/08 08:25:11;;;;;;;5.53;3.72;;;8.40;99.90;;;;;;5068658;28;20040;-75
2022/04/08 08:27:53;;;;;;;7.43;4.05;;;8.50;99.90;;;;;;5059298;28;20059;-75
2022/04/08 08:30:18;;;;;;;9.05;4.65;;;8.80;99.90;;;;;;5051667;28;20056;-74
2022/04/08 08:32:46;;;;;;;13.88;4.60;;;9.00;99.90;;;;;;5068475;28;20509;-72
2022/04/08 08:35:14;;;;;;;7.00;4.68;;;9.20;99.90;;;;;;5067546;28;20056;-73
2022/04/08 08:37:40;;;;;;;11.50;4.82;;;9.50;99.90;;;;;;5067700;28;20044;-73
2022/04/08 08:40:07;;;;;;;6.55;3.85;;;9.50;99.90;;;;;;5068844;28;20065;-72
2022/04/08 08:42:36;;;;;;;6.75;3.22;;;9.80;99.90;;;;;;5059157;28;20047;-73
2022/04/08 08:45:02;;;;;;;7.32;3.20;;;10.00;99.90;;;;;;5064727;28;20465;-72
2022/04/08 08:47:30;;;;;;;8.07;4.25;;;10.10;99.90;;;;;;5069844;28;20044;-73
2022/04/08 08:49:56;;;;;;;5.57;3.47;;;10.20;99.90;;;;;;5068840;28;20051;-73
2022/04/08 08:52:24;;;;;;;10.57;4.35;;;10.20;99.90;;;;;;5066255;28;20044;-73
2022/04/08 08:54:51;;;;;;;9.70;3.97;;;10.10;99.90;;;;;;5062947;28;20051;-73
2022/04/08 08:57:18;;;;;;;7.60;4.77;;;10.10;99.90;;;;;;5074651;28;20071;-73
2022/04/08 08:59:45;;;;;;;9.98;4.22;;;10.10;99.90;;;;;;5070619;28;20307;-73
2022/04/08 09:02:22;;;;;;;6.28;4.20;;;10.20;99.90;;;;;;5069830;28;20049;-73
2022/04/08 09:04:50;;;;;;;6.60;4.18;;;10.30;99.90;;;;;;5068329;28;20612;-74
2022/04/08 09:07:24;;;;;;;9.18;4.57;;;10.50;99.90;;;;;;5069264;28;20110;-73
2022/04/08 09:09:54;;;;;;;19.10;4.80;;;10.70;99.90;;;;;;5069403;28;20129;-74
2022/04/08 09:12:24;;;;;;;14.60;4.65;;;10.90;99.90;;;;;;5067466;28;20413;-73
2022/04/08 09:14:53;;;;;;;10.57;3.92;;;10.80;99.90;;;;;;5069776;28;20040;-74
2022/04/08 09:17:21;;;;;;;10.25;4.60;;;10.80;99.90;;;;;;5050727;28;20124;-73
2022/04/08 09:19:55;;;;;;;5.70;3.63;;;11.00;99.90;;;;;;5049665;28;20048;-73
2022/04/08 09:22:24;;;;;;;14.07;4.90;;;11.00;99.90;;;;;;5053137;28;20133;-73
2022/04/08 09:24:51;;;;;;;28.13;4.55;;;11.00;99.90;;;;;;5070292;28;20048;-73
2022/04/08 09:27:17;;;;;;;13.30;4.15;;;11.20;99.90;;;;;;5066198;28;20513;-73
2022/04/08 09:29:44;;;;;;;9.93;3.95;;;11.30;99.90;;;;;;5067418;28;20422;-73
2022/04/08 09:32:15;;;;;;;8.00;4.63;;;11.40;99.90;;;;;;5068509;28;20391;-73
2022/04/08 09:34:42;;;;;;;14.73;5.00;;;11.20;99.90;;;;;;5056507;28;20134;-73
2022/04/08 09:37:15;;;;;;;7.87;4.43;;;11.00;99.90;;;;;;5049782;28;20041;-73
2022/04/08 09:40:05;;;;;;;15.38;5.10;;;10.90;99.90;;;;;;5058953;28;20060;-73
2022/04/08 09:42:46;;;;;;;12.60;4.13;;;10.80;99.90;;;;;;5055243;28;20049;-73
2022/04/08 09:45:13;;;;;;;11.98;5.00;;;10.50;99.90;;;;;;5056535;28;20052;-74
2022/04/08 09:47:40;;;;;;;15.85;5.63;;;10.40;99.90;;;;;;5067326;28;20106;-74
2022/04/08 09:50:08;;;;;;;10.93;5.07;;;10.40;99.90;;;;;;5060960;28;20041;-74
2022/04/08 09:52:39;;;;;;;12.90;6.45;;;10.00;99.90;;;;;;5064129;28;20040;-73
2022/04/08 09:55:07;;;;;;;12.63;6.47;;;10.10;99.90;;;;;;5063504;28;20055;-74
2022/04/08 09:57:39;;;;;;;14.80;5.15;;;10.10;99.90;;;;;;5062036;28;20049;-74
2022/04/08 10:00:06;;;;;;;10.70;5.05;;;10.20;99.90;;;;;;5055951;28;20502;-74
2022/04/08 10:02:40;;;;;;;17.77;7.40;;;10.40;99.90;;;;;;5034057;28;20414;-73
2022/04/08 10:05:08;;;;;;;14.23;6.60;;;10.70;99.90;;;;;;5047681;28;20045;-74
2022/04/08 10:07:35;;;;;;;8.38;5.40;;;10.70;99.90;;;;;;5047252;28;20049;-73
2022/04/08 10:10:15;;;;;;;21.63;5.97;;;10.60;99.90;;;;;;5048255;28;20044;-73
2022/04/08 10:13:05;;;;;;;12.40;5.03;;;10.70;99.90;;;;;;5047780;28;20045;-73
2022/04/08 10:15:38;;;;;;;9.95;5.00;;;10.80;99.90;;;;;;5051460;28;20051;-73
2022/04/08 10:18:05;;;;;;;7.35;3.67;;;10.90;99.90;;;;;;5051226;28;20159;-72
2022/04/08 10:20:32;;;;;;;16.48;4.60;;;11.00;99.90;;;;;;5052208;28;20406;-72
2022/04/08 10:23:05;;;;;;;15.97;6.13;;;10.90;99.90;;;;;;5065710;28;20063;-73
2022/04/08 10:25:39;;;;;;;21.48;6.15;;;10.90;99.90;;;;;;5058186;28;20294;-73
2022/04/08 10:28:06;;;;;;;13.80;6.43;;;11.00;99.90;;;;;;5064492;28;20045;-72
2022/04/08 10:30:35;;;;;;;12.73;5.70;;;11.10;99.90;;;;;;5066573;28;20045;-72
2022/04/08 10:33:01;;;;;;;;;;;11.00;99.90;;;;;;5061921;28;20537;-73
2022/04/08 10:35:28;;;;;;;14.52;5.60;;;10.80;99.90;;;;;;5063766;28;19927;-73
2022/04/08 10:37:58;;;;;;;12.07;6.00;;;10.60;99.90;;;;;;5070556;28;20058;-73
2022/04/08 10:40:38;;;;;;;15.90;6.80;;;10.60;99.90;;;;;;5066105;28;20055;-73
2022/04/08 10:43:09;;;;;;;12.70;5.35;;;10.50;99.90;;;;;;5069997;28;20055;-72
2022/04/08 10:45:36;;;;;;;14.40;7.28;;;10.50;99.90;;;;;;5070253;28;20166;-72
2022/04/08 10:48:23;;;;;;;23.58;7.00;;;10.50;99.90;;;;;;5069519;28;20044;-72
2022/04/08 10:50:50;;;;;;;17.95;6.20;;;10.40;99.90;;;;;;5070255;28;20154;-72
2022/04/08 10:53:24;;;;;;;19.10;7.07;;;10.20;99.90;;;;;;5071103;28;20121;-72
2022/04/08 10:56:10;;;;;;;17.00;6.70;;;10.20;99.90;;;;;;5070489;28;20557;-72
2022/04/08 10:58:42;;;;;;;16.23;6.18;;;10.10;99.90;;;;;;5069928;28;20055;-73
2022/04/08 11:01:15;;;;;;;8.88;4.75;;;10.00;99.90;;;;;;5070160;28;20056;-72
2022/04/08 11:03:46;;;;;;;11.20;5.70;;;10.00;99.90;;;;;;5052047;28;20072;-73
2022/04/08 11:06:19;;;;;;;9.57;5.30;;;10.00;99.90;;;;;;5060439;28;20395;-73
2022/04/08 11:08:45;;;;;;;9.50;5.07;;;10.00;99.90;;;;;;5063590;28;20612;-72
2022/04/08 11:11:11;;;;;;;10.85;4.10;;;9.70;99.90;;;;;;5065102;28;20132;-72
2022/04/08 11:13:40;;;;;;;13.52;4.18;;;9.80;99.90;;;;;;5070725;28;20048;-73
2022/04/08 11:16:07;;;;;;;10.32;4.53;;;10.00;99.90;;;;;;5071401;28;20079;-74
2022/04/08 11:18:32;;;;;;;12.65;4.15;;;9.90;99.90;;;;;;5070342;28;20390;-73
2022/04/08 11:20:58;;;;;;;7.45;4.15;;;10.00;99.90;;;;;;5068563;28;20123;-74
2022/04/08 11:23:26;;;;;;;6.43;4.35;;;10.00;99.90;;;;;;5050472;28;20103;-72
2022/04/08 11:25:52;;;;;;;8.00;4.75;;;9.90;99.90;;;;;;5050871;28;20072;-73
2022/04/08 11:28:20;;;;;;;4.13;3.63;;;10.00;99.90;;;;;;5050957;28;20100;-74
2022/04/08 11:30:46;;;;;;;5.90;3.90;;;9.90;99.90;;;;;;5050261;28;20048;-75
2022/04/08 11:33:16;;;;;;;7.97;4.40;;;9.80;99.90;;;;;;5051043;28;20083;-71
2022/04/08 11:35:42;;;;;;;9.70;4.15;;;9.90;99.90;;;;;;5059502;28;20455;-73
2022/04/08 11:38:20;;;;;;;14.27;4.57;;;9.90;99.90;;;;;;5070747;28;20131;-73
2022/04/08 11:40:46;;;;;;;15.15;5.30;;;9.80;99.90;;;;;;5070544;28;20056;-74
2022/04/08 11:43:13;;;;;;;13.50;4.85;;;9.80;99.90;;;;;;5069988;28;20668;-74
2022/04/08 11:45:39;;;;;;;13.15;4.65;;;9.90;99.90;;;;;;5065919;28;20671;-73
2022/04/08 11:48:13;;;;;;;9.55;4.20;;;10.00;99.90;;;;;;5064729;28;20048;-74
2022/04/08 11:50:40;;;;;;;11.80;4.57;;;10.10;99.90;;;;;;5056528;28;20418;-74
2022/04/08 11:53:13;;;;;;;12.70;4.38;;;10.30;99.90;;;;;;5068995;28;20105;-74
2022/04/08 11:55:39;;;;;;;14.68;4.05;;;10.60;99.90;;;;;;5041125;28;20049;-74
2022/04/08 11:58:19;;;;;;;7.53;3.08;;;10.60;99.90;;;;;;5061485;28;20052;-73
2022/04/08 12:00:48;;;;;;;9.43;4.93;;;10.70;99.90;;;;;;5061671;28;20489;-74
2022/04/08 12:03:22;;;;;;;10.38;5.40;;;10.70;99.90;;;;;;5065185;28;20045;-74
2022/04/08 12:05:49;;;;;;;7.85;4.03;;;10.70;99.90;;;;;;5069271;28;20494;-75
2022/04/08 12:08:17;;;;;;;8.60;3.87;;;10.50;99.90;;;;;;5060247;28;20539;-74
2022/04/08 12:10:45;;;;;;;6.95;3.17;;;10.30;99.90;;;;;;5068405;28;20315;-74
2022/04/08 12:13:25;;;;;;;7.70;3.58;;;10.10;99.90;;;;;;5067348;28;20050;-77
2022/04/08 12:15:56;;;;;;;8.57;4.18;;;10.00;99.90;;;;;;5066844;28;20053;-76
2022/04/08 12:18:26;;;;;;;7.57;3.70;;;9.80;99.90;;;;;;5069134;28;20478;-74
2022/04/08 12:21:08;;;;;;;12.65;3.75;;;9.80;99.90;;;;;;5068562;28;20059;-77
2022/04/08 12:23:34;;;;;;;14.85;3.42;;;9.50;99.90;;;;;;5064384;28;20044;-75
2022/04/08 12:26:05;;;;;;;8.27;3.55;;;9.40;99.90;;;;;;5056390;28;20295;-74
2022/04/08 12:28:34;;;;;;;7.95;4.40;;;9.50;99.90;;;;;;5068472;28;20803;-75
2022/04/08 12:31:11;;;;;;;11.80;3.58;;;9.60;99.90;;;;;;5048762;28;20083;-76
2022/04/08 12:33:37;;;;;;;10.18;3.60;;;9.90;99.90;;;;;;5049282;28;20048;-75
2022/04/08 12:36:09;;;;;;;7.22;3.30;;;10.10;99.90;;;;;;5062298;28;20159;-76
2022/04/08 12:38:36;;;;;;;14.07;3.60;;;10.10;99.90;;;;;;5064770;28;20040;-77
2022/04/08 12:41:02;;;;;;;3.00;2.70;;;10.10;99.90;;;;;;5069495;28;20048;-74
2022/04/08 12:43:27;;;;;;;36.88;5.57;;;10.00;99.90;;;;;;5068079;28;20143;-75
2022/04/08 12:45:53;;;;;;;5.88;3.42;;;10.00;99.90;;;;;;5068481;28;20048;-75
2022/04/08 12:48:18;;;;;;;49.33;7.25;;;9.90;99.90;;;;;;5068824;28;20040;-75
2022/04/08 12:50:44;;;;;;;13.32;4.25;;;10.00;99.90;;;;;;5066996;28;20555;-75
2022/04/08 12:53:10;;;;;;;10.68;4.13;;;10.20;99.90;;;;;;5067637;28;20062;-77